createdAt,value
2019-02-07T00:00:23.720Z,57.6
2019-02-07T00:01:14.660Z,57.6
2019-02-07T00:02:04.411Z,57.6
2019-02-07T00:02:54.200Z,57.6
2019-02-07T00:03:44.232Z,57.6
2019-02-07T00:04:34.355Z,57.5
2019-02-07T00:05:24.349Z,57.5
2019-02-07T00:06:13.842Z,57.5
2019-02-07T00:07:06.363Z,57.5
2019-02-07T00:07:54.917Z,57.5
2019-02-07T00:08:44.702Z,57.5
2019-02-07T00:09:34.365Z,57.5
2019-02-07T00:10:23.597Z,57.5
2019-02-07T00:11:14.762Z,57.5
2019-02-07T00:12:05.152Z,57.5
2019-02-07T00:12:54.713Z,57.5
2019-02-07T00:13:44.910Z,57.5
2019-02-07T00:14:44.157Z,57.5
2019-02-07T00:15:25.050Z,57.4
2019-02-07T00:16:17.128Z,57.4
2019-02-07T00:17:05.444Z,57.4
2019-02-07T00:17:54.945Z,57.4
2019-02-07T00:18:44.786Z,57.4
2019-02-07T00:19:34.906Z,57.4
2019-02-07T00:20:24.831Z,57.4
2019-02-07T00:21:15.759Z,57.4
2019-02-07T00:22:04.974Z,57.4
2019-02-07T00:22:55.861Z,57.4
2019-02-07T00:23:45.629Z,57.4
2019-02-07T00:24:47.416Z,57.4
2019-02-07T00:25:27.907Z,57.4
2019-02-07T00:26:15.294Z,57.4
2019-02-07T00:27:05.866Z,57.4
2019-02-07T00:27:55.648Z,57.4
2019-02-07T00:28:45.694Z,57.4
2019-02-07T00:29:36.310Z,57.4
2019-02-07T00:30:26.107Z,57.4
2019-02-07T00:31:16.327Z,57.4
2019-02-07T00:32:06.503Z,57.3
2019-02-07T00:32:55.745Z,57.3
2019-02-07T00:33:46.360Z,57.3
2019-02-07T00:34:38.773Z,57.3
2019-02-07T00:35:26.448Z,57.3
2019-02-07T00:36:15.967Z,57.3
2019-02-07T00:37:06.570Z,57.3
2019-02-07T00:37:56.071Z,57.3
2019-02-07T00:38:46.118Z,57.3
2019-02-07T00:39:36.473Z,57.3
2019-02-07T00:40:26.505Z,57.3
2019-02-07T00:41:16.882Z,57.3
2019-02-07T00:42:06.355Z,57.3
2019-02-07T00:42:57.261Z,57.3
2019-02-07T00:43:48.738Z,57.3
2019-02-07T00:44:36.815Z,57.3
2019-02-07T00:45:26.862Z,57.3
2019-02-07T00:46:16.762Z,57.3
2019-02-07T00:47:07.502Z,57.3
2019-02-07T00:47:57.075Z,57.3
2019-02-07T00:48:47.384Z,57.3
2019-02-07T00:49:37.144Z,57.2
2019-02-07T00:50:27.547Z,57.2
2019-02-07T00:51:17.848Z,57.2
2019-02-07T00:52:07.735Z,57.2
2019-02-07T00:52:59.809Z,57.2
2019-02-07T00:53:47.814Z,57.2
2019-02-07T00:54:38.174Z,57.2
2019-02-07T00:55:27.327Z,57.2
2019-02-07T00:56:17.637Z,57.1
2019-02-07T00:57:08.369Z,57.2
2019-02-07T00:57:58.329Z,57.1
2019-02-07T00:58:48.163Z,57.1
2019-02-07T00:59:37.857Z,57.1
2019-02-07T01:00:27.963Z,57.1
2019-02-07T01:01:18.636Z,57.1
2019-02-07T01:02:10.371Z,57.1
2019-02-07T01:02:58.403Z,57.1
2019-02-07T01:03:48.161Z,57.1
2019-02-07T01:04:38.513Z,57.1
2019-02-07T01:05:28.843Z,57.1
2019-02-07T01:06:18.593Z,57.1
2019-02-07T01:07:07.954Z,57.1
2019-02-07T01:07:57.660Z,57.1
2019-02-07T01:08:48.880Z,57.1
2019-02-07T01:09:38.291Z,57.1
2019-02-07T01:10:28.543Z,57.1
2019-02-07T01:11:20.354Z,57.1
2019-02-07T01:12:08.790Z,57.1
2019-02-07T01:12:59.363Z,57.1
2019-02-07T01:13:48.957Z,57.1
2019-02-07T01:14:39.695Z,57.1
2019-02-07T01:15:29.563Z,57
2019-02-07T01:16:19.158Z,57
2019-02-07T01:17:09.382Z,57
2019-02-07T01:17:59.433Z,57
2019-02-07T01:18:49.516Z,57
2019-02-07T01:19:39.547Z,57
2019-02-07T01:20:31.535Z,57
2019-02-07T01:21:19.762Z,57
2019-02-07T01:22:09.776Z,57
2019-02-07T01:23:00.145Z,57
2019-02-07T01:23:49.847Z,57
2019-02-07T01:24:40.180Z,56.9
2019-02-07T01:25:29.239Z,56.9
2019-02-07T01:26:20.227Z,56.9
2019-02-07T01:27:10.329Z,56.9
2019-02-07T01:28:00.127Z,56.9
2019-02-07T01:28:49.910Z,56.9
2019-02-07T01:29:42.527Z,56.9
2019-02-07T01:30:30.597Z,56.9
2019-02-07T01:31:20.624Z,56.9
2019-02-07T01:32:10.432Z,56.9
2019-02-07T01:33:00.494Z,56.9
2019-02-07T01:33:50.559Z,56.9
2019-02-07T01:34:39.811Z,56.9
2019-02-07T01:35:31.351Z,56.9
2019-02-07T01:36:20.446Z,56.9
2019-02-07T01:37:09.954Z,56.9
2019-02-07T01:38:00.856Z,56.9
2019-02-07T01:38:52.504Z,56.9
2019-02-07T01:39:41.037Z,56.9
2019-02-07T01:40:30.741Z,56.9
2019-02-07T01:41:20.808Z,56.9
2019-02-07T01:42:10.614Z,56.8
2019-02-07T01:43:01.209Z,56.8
2019-02-07T01:43:50.519Z,56.8
2019-02-07T01:44:42.946Z,56.8
2019-02-07T01:45:31.636Z,56.8
2019-02-07T01:46:21.704Z,56.8
2019-02-07T01:47:10.961Z,56.8
2019-02-07T01:48:02.868Z,56.8
2019-02-07T01:48:50.588Z,56.8
2019-02-07T01:49:41.663Z,56.8
2019-02-07T01:50:30.896Z,56.8
2019-02-07T01:51:20.935Z,56.8
2019-02-07T01:52:12.253Z,56.8
2019-02-07T01:53:01.616Z,56.8
2019-02-07T01:53:53.576Z,56.8
2019-02-07T01:54:42.295Z,56.7
2019-02-07T01:55:32.358Z,56.8
2019-02-07T01:56:22.243Z,56.8
2019-02-07T01:57:12.487Z,56.7
2019-02-07T01:58:01.876Z,56.7
2019-02-07T01:58:51.850Z,56.7
2019-02-07T01:59:41.720Z,56.7
2019-02-07T02:00:32.710Z,56.7
2019-02-07T02:01:22.217Z,56.7
2019-02-07T02:02:12.512Z,56.7
2019-02-07T02:03:04.766Z,56.7
2019-02-07T02:03:52.962Z,56.7
2019-02-07T02:04:43.006Z,56.7
2019-02-07T02:05:33.082Z,56.8
2019-02-07T02:06:22.580Z,56.9
2019-02-07T02:07:12.657Z,56.9
2019-02-07T02:08:03.069Z,57.1
2019-02-07T02:08:53.397Z,57.3
2019-02-07T02:09:43.069Z,57.4
2019-02-07T02:10:32.559Z,57.5
2019-02-07T02:12:15.336Z,57.9
2019-02-07T02:13:03.651Z,58.1
2019-02-07T02:13:52.804Z,58.4
2019-02-07T02:15:33.464Z,58.6
2019-02-07T02:16:26.219Z,58.8
2019-02-07T02:17:13.046Z,59
2019-02-07T02:18:03.937Z,59.1
2019-02-07T02:18:53.431Z,59.3
2019-02-07T02:19:43.226Z,59.4
2019-02-07T02:20:33.548Z,59.7
2019-02-07T02:21:26.426Z,59.8
2019-02-07T02:22:14.196Z,59.9
2019-02-07T02:23:03.766Z,60.1
2019-02-07T02:23:53.831Z,60.3
2019-02-07T02:24:48.081Z,60.4
2019-02-07T02:25:34.556Z,60.6
2019-02-07T02:26:24.529Z,60.8
2019-02-07T02:27:14.588Z,61
2019-02-07T02:28:04.399Z,61.1
2019-02-07T02:28:54.691Z,61.2
2019-02-07T02:29:44.746Z,61.4
2019-02-07T02:30:37.502Z,61.6
2019-02-07T02:31:24.055Z,61.7
2019-02-07T02:32:14.436Z,61.8
2019-02-07T02:33:04.533Z,61.8
2019-02-07T02:33:55.099Z,61.8
2019-02-07T02:34:44.820Z,61.8
2019-02-07T02:35:35.012Z,61.8
2019-02-07T02:36:24.985Z,61.8
2019-02-07T02:37:14.726Z,61.8
2019-02-07T02:38:04.243Z,61.9
2019-02-07T02:38:55.132Z,62
2019-02-07T02:39:45.615Z,62.1
2019-02-07T02:40:35.247Z,62.1
2019-02-07T02:41:25.307Z,62.1
2019-02-07T02:42:15.084Z,62.1
2019-02-07T02:43:05.200Z,62.1
2019-02-07T02:43:55.189Z,62.2
2019-02-07T02:44:45.823Z,62.3
2019-02-07T02:45:42.345Z,62.3
2019-02-07T02:46:24.829Z,62.4
2019-02-07T02:47:15.450Z,62.4
2019-02-07T02:48:05.773Z,62.4
2019-02-07T02:48:55.568Z,62.4
2019-02-07T02:49:46.159Z,62.4
2019-02-07T02:50:35.721Z,62.4
2019-02-07T02:51:26.013Z,62.6
2019-02-07T02:52:15.828Z,62.6
2019-02-07T02:53:06.146Z,62.6
2019-02-07T02:53:56.429Z,62.6
2019-02-07T02:54:48.358Z,62.6
2019-02-07T02:55:36.376Z,62.6
2019-02-07T02:56:26.114Z,62.7
2019-02-07T02:57:16.432Z,62.6
2019-02-07T02:58:06.851Z,62.6
2019-02-07T02:58:55.541Z,62.8
2019-02-07T02:59:46.622Z,62.8
2019-02-07T03:00:36.195Z,62.8
2019-02-07T03:01:26.422Z,62.9
2019-02-07T03:02:16.503Z,62.8
2019-02-07T03:03:06.862Z,62.9
2019-02-07T03:03:57.344Z,62.9
2019-02-07T03:04:47.378Z,62.9
2019-02-07T03:08:19.233Z,62.9
2019-02-07T03:09:09.007Z,63.1
2019-02-07T03:09:59.136Z,63.2
2019-02-07T03:10:50.266Z,63.2
2019-02-07T03:11:39.190Z,63.3
2019-02-07T03:12:28.992Z,63.3
2019-02-07T03:13:19.010Z,63.3
2019-02-07T03:14:09.374Z,63.3
2019-02-07T03:14:59.481Z,63.3
2019-02-07T03:15:54.063Z,63.3
2019-02-07T03:16:39.820Z,63.3
2019-02-07T03:17:29.858Z,63.3
2019-02-07T03:18:18.815Z,63.3
2019-02-07T03:19:09.758Z,63.3
2019-02-07T03:20:02.188Z,63.3
2019-02-07T03:20:49.920Z,63.3
2019-02-07T03:21:39.120Z,63.3
2019-02-07T03:22:29.759Z,63.3
2019-02-07T03:23:20.020Z,63.3
2019-02-07T03:24:10.372Z,63.3
2019-02-07T03:25:00.133Z,63.3
2019-02-07T03:25:49.485Z,63.3
2019-02-07T03:26:40.055Z,63.3
2019-02-07T03:27:30.364Z,63.3
2019-02-07T03:28:20.400Z,63.3
2019-02-07T03:29:12.811Z,63.3
2019-02-07T03:30:00.992Z,63.3
2019-02-07T03:30:50.815Z,63.3
2019-02-07T03:31:40.552Z,63.3
2019-02-07T03:32:30.809Z,63.3
2019-02-07T03:33:20.495Z,63.3
2019-02-07T03:34:09.910Z,63.3
2019-02-07T03:35:01.406Z,63.3
2019-02-07T03:35:50.905Z,63.3
2019-02-07T03:36:41.204Z,63.3
2019-02-07T03:37:30.999Z,63.3
2019-02-07T03:38:23.764Z,63.3
2019-02-07T03:39:10.874Z,63.3
2019-02-07T03:40:01.030Z,63.2
2019-02-07T03:40:51.221Z,63.2
2019-02-07T03:41:40.602Z,63.2
2019-02-07T03:42:30.321Z,63.2
2019-02-07T03:43:21.187Z,63.2
2019-02-07T03:44:11.393Z,63.2
2019-02-07T03:45:00.926Z,63.2
2019-02-07T03:46:05.173Z,63.2
2019-02-07T03:46:40.707Z,63.2
2019-02-07T03:47:33.729Z,63.2
2019-02-07T03:48:21.603Z,63.2
2019-02-07T03:49:11.103Z,63.2
2019-02-07T03:50:01.270Z,63.1
2019-02-07T03:50:51.724Z,63.2
2019-02-07T03:51:41.994Z,63.1
2019-02-07T03:52:30.925Z,63.1
2019-02-07T03:53:22.523Z,63.1
2019-02-07T03:54:11.910Z,63.1
2019-02-07T03:55:02.543Z,63.1
2019-02-07T03:55:52.125Z,63.1
2019-02-07T03:56:44.608Z,63.1
2019-02-07T03:57:31.851Z,63.1
2019-02-07T03:58:22.483Z,63.1
2019-02-07T03:59:11.985Z,63.1
2019-02-07T04:00:02.955Z,63.1
2019-02-07T04:00:52.637Z,63.1
2019-02-07T04:01:42.705Z,63.1
2019-02-07T04:02:33.048Z,63.1
2019-02-07T04:03:23.155Z,63.1
2019-02-07T04:04:13.157Z,63.1
2019-02-07T04:05:03.289Z,63.1
2019-02-07T04:05:55.944Z,63.1
2019-02-07T04:06:42.753Z,63.1
2019-02-07T04:07:33.222Z,63
2019-02-07T04:08:22.652Z,63
2019-02-07T04:09:12.737Z,63
2019-02-07T04:10:02.462Z,63
2019-02-07T04:10:53.044Z,63
2019-02-07T04:11:43.607Z,63
2019-02-07T04:12:33.457Z,63
2019-02-07T04:13:23.510Z,63
2019-02-07T04:14:13.274Z,63
2019-02-07T04:15:06.016Z,62.9
2019-02-07T04:15:53.397Z,63
2019-02-07T04:16:43.816Z,63
2019-02-07T04:17:33.891Z,62.9
2019-02-07T04:18:23.959Z,62.9
2019-02-07T04:19:14.202Z,62.9
2019-02-07T04:20:04.433Z,62.9
2019-02-07T04:20:54.421Z,62.9
2019-02-07T04:21:44.106Z,62.9
2019-02-07T04:22:33.958Z,62.9
2019-02-07T04:23:23.953Z,62.9
2019-02-07T04:24:20.327Z,62.9
2019-02-07T04:25:20.244Z,62.9
2019-02-07T04:25:54.406Z,62.9
2019-02-07T04:26:44.183Z,62.9
2019-02-07T04:27:34.596Z,62.9
2019-02-07T04:28:24.124Z,62.9
2019-02-07T04:29:14.973Z,62.9
2019-02-07T04:30:05.320Z,62.9
2019-02-07T04:30:54.826Z,62.8
2019-02-07T04:31:45.111Z,62.8
2019-02-07T04:32:34.676Z,62.8
2019-02-07T04:33:26.901Z,62.8
2019-02-07T04:34:14.158Z,62.8
2019-02-07T04:35:05.430Z,62.8
2019-02-07T04:35:54.925Z,62.8
2019-02-07T04:36:44.351Z,62.8
2019-02-07T04:37:35.050Z,62.8
2019-02-07T04:38:24.983Z,62.8
2019-02-07T04:39:14.670Z,62.8
2019-02-07T04:40:05.740Z,62.8
2019-02-07T04:40:55.450Z,62.8
2019-02-07T04:41:45.777Z,62.8
2019-02-07T04:42:38.196Z,62.8
2019-02-07T04:43:25.642Z,62.8
2019-02-07T04:44:15.412Z,62.8
2019-02-07T04:45:05.612Z,62.8
2019-02-07T04:45:56.074Z,62.8
2019-02-07T04:46:46.147Z,62.7
2019-02-07T04:47:35.645Z,62.7
2019-02-07T04:48:26.263Z,62.7
2019-02-07T04:49:15.770Z,62.7
2019-02-07T04:50:06.161Z,62.7
2019-02-07T04:50:55.729Z,62.7
2019-02-07T04:51:49.010Z,62.7
2019-02-07T04:52:35.737Z,62.7
2019-02-07T04:53:26.322Z,62.7
2019-02-07T04:54:16.082Z,62.6
2019-02-07T04:55:06.772Z,62.7
2019-02-07T04:55:56.474Z,62.6
2019-02-07T04:56:46.839Z,62.6
2019-02-07T04:57:36.446Z,62.6
2019-02-07T04:58:26.661Z,62.6
2019-02-07T04:59:16.498Z,62.6
2019-02-07T05:00:09.588Z,62.6
2019-02-07T05:00:59.016Z,62.6
2019-02-07T05:01:47.191Z,62.6
2019-02-07T05:02:36.981Z,62.6
2019-02-07T05:03:27.389Z,62.6
2019-02-07T05:04:16.799Z,62.6
2019-02-07T05:05:06.989Z,62.6
2019-02-07T05:05:57.241Z,62.6
2019-02-07T05:06:47.651Z,62.6
2019-02-07T05:07:37.334Z,62.6
2019-02-07T05:08:27.370Z,62.6
2019-02-07T05:09:16.859Z,62.6
2019-02-07T05:10:09.896Z,62.6
2019-02-07T05:10:56.703Z,62.6
2019-02-07T05:11:46.775Z,62.5
2019-02-07T05:12:37.401Z,62.5
2019-02-07T05:13:27.442Z,62.5
2019-02-07T05:14:17.245Z,62.5
2019-02-07T05:15:07.555Z,62.5
2019-02-07T05:15:58.653Z,62.5
2019-02-07T05:16:48.435Z,62.5
2019-02-07T05:17:38.299Z,62.5
2019-02-07T05:18:28.061Z,62.4
2019-02-07T05:19:18.928Z,62.5
2019-02-07T05:20:08.205Z,62.4
2019-02-07T05:20:57.120Z,62.4
2019-02-07T05:21:48.055Z,62.4
2019-02-07T05:22:38.106Z,62.4
2019-02-07T05:23:27.877Z,62.4
2019-02-07T05:24:18.199Z,62.4
2019-02-07T05:25:10.341Z,62.4
2019-02-07T05:25:58.888Z,62.4
2019-02-07T05:26:48.756Z,62.4
2019-02-07T05:27:39.559Z,62.4
2019-02-07T05:28:28.447Z,62.4
2019-02-07T05:29:19.132Z,62.4
2019-02-07T05:30:09.140Z,62.4
2019-02-07T05:30:58.657Z,62.4
2019-02-07T05:31:48.472Z,62.4
2019-02-07T05:32:40.840Z,62.4
2019-02-07T05:33:28.589Z,62.4
2019-02-07T05:34:21.522Z,62.4
2019-02-07T05:35:09.540Z,62.3
2019-02-07T05:35:59.095Z,62.3
2019-02-07T05:36:49.402Z,62.3
2019-02-07T05:37:39.129Z,62.3
2019-02-07T05:38:29.512Z,62.3
2019-02-07T05:39:19.334Z,62.3
2019-02-07T05:40:09.979Z,62.3
2019-02-07T05:40:59.649Z,62.3
2019-02-07T05:41:49.704Z,62.3
2019-02-07T05:42:38.930Z,62.3
2019-02-07T05:43:32.088Z,62.3
2019-02-07T05:44:19.572Z,62.3
2019-02-07T05:45:09.652Z,62.3
2019-02-07T05:45:59.686Z,62.3
2019-02-07T05:46:58.546Z,62.3
2019-02-07T05:47:39.796Z,62.3
2019-02-07T05:48:30.282Z,62.3
2019-02-07T05:49:20.181Z,62.3
2019-02-07T05:50:10.523Z,62.3
2019-02-07T05:51:00.648Z,62.3
2019-02-07T05:51:50.655Z,62.2
2019-02-07T05:52:42.046Z,62.2
2019-02-07T05:53:29.953Z,62.2
2019-02-07T05:54:20.819Z,62.2
2019-02-07T05:55:10.414Z,62.2
2019-02-07T05:56:00.373Z,62.2
2019-02-07T05:56:49.908Z,62.1
2019-02-07T05:57:40.571Z,62.1
2019-02-07T05:58:31.520Z,62.1
2019-02-07T05:59:20.604Z,62.1
2019-02-07T06:00:10.973Z,62.1
2019-02-07T06:01:00.735Z,62.1
2019-02-07T06:01:52.843Z,62.1
2019-02-07T06:02:41.423Z,62.1
2019-02-07T06:03:29.867Z,62.1
2019-02-07T06:04:23.701Z,62.1
2019-02-07T06:06:18.569Z,62.1
2019-02-07T06:07:08.594Z,62.1
2019-02-07T06:07:59.205Z,62.1
2019-02-07T06:08:50.670Z,62.1
2019-02-07T06:09:39.344Z,62.1
2019-02-07T06:10:28.526Z,62.1
2019-02-07T06:11:19.133Z,62.1
2019-02-07T06:12:09.097Z,62
2019-02-07T06:12:59.282Z,62.1
2019-02-07T06:13:49.387Z,62
2019-02-07T06:14:39.669Z,62
2019-02-07T06:15:29.719Z,62
2019-02-07T06:16:18.651Z,62
2019-02-07T06:17:09.276Z,62
2019-02-07T06:18:00.874Z,62
2019-02-07T06:19:05.829Z,62
2019-02-07T06:19:40.004Z,61.9
2019-02-07T06:20:29.787Z,61.9
2019-02-07T06:21:20.407Z,61.9
2019-02-07T06:22:09.899Z,61.9
2019-02-07T06:22:59.416Z,61.9
2019-02-07T06:23:49.869Z,61.9
2019-02-07T06:24:39.806Z,61.9
2019-02-07T06:25:29.642Z,61.9
2019-02-07T06:26:20.160Z,61.9
2019-02-07T06:27:11.851Z,61.9
2019-02-07T06:28:00.637Z,61.9
2019-02-07T06:28:49.849Z,61.9
2019-02-07T06:29:41.018Z,61.9
2019-02-07T06:30:29.926Z,61.9
2019-02-07T06:31:20.046Z,61.9
2019-02-07T06:32:10.873Z,61.9
2019-02-07T06:33:00.653Z,61.9
2019-02-07T06:33:51.401Z,61.9
2019-02-07T06:34:41.050Z,61.9
2019-02-07T06:35:30.566Z,61.8
2019-02-07T06:36:22.873Z,61.8
2019-02-07T06:37:10.968Z,61.8
2019-02-07T06:38:01.051Z,61.8
2019-02-07T06:38:51.340Z,61.8
2019-02-07T06:39:41.156Z,61.8
2019-02-07T06:40:30.189Z,61.8
2019-02-07T06:41:21.307Z,61.8
2019-02-07T06:42:11.407Z,61.8
2019-02-07T06:43:01.132Z,61.8
2019-02-07T06:43:51.150Z,61.8
2019-02-07T06:44:41.844Z,61.8
2019-02-07T06:45:33.447Z,61.8
2019-02-07T06:46:21.679Z,61.8
2019-02-07T06:47:18.076Z,61.8
2019-02-07T06:48:01.670Z,61.8
2019-02-07T06:48:51.479Z,61.8
2019-02-07T06:49:41.916Z,61.8
2019-02-07T06:50:31.947Z,61.8
2019-02-07T06:51:21.365Z,61.7
2019-02-07T06:52:12.034Z,61.7
2019-02-07T06:53:02.407Z,61.7
2019-02-07T06:53:52.119Z,61.7
2019-02-07T06:54:44.213Z,61.7
2019-02-07T06:55:32.634Z,61.7
2019-02-07T06:56:22.559Z,61.7
2019-02-07T06:57:12.356Z,61.7
2019-02-07T06:58:03.119Z,61.7
2019-02-07T06:58:54.962Z,61.6
2019-02-07T07:01:10.435Z,61.6
2019-02-07T07:01:20.882Z,61.6
2019-02-07T07:02:11.328Z,61.6
2019-02-07T07:03:01.118Z,61.6
2019-02-07T07:03:54.130Z,61.6
2019-02-07T07:06:18.459Z,61.6
2019-02-07T07:07:08.917Z,61.6
2019-02-07T07:07:58.585Z,61.6
2019-02-07T07:08:49.210Z,61.6
2019-02-07T07:09:39.757Z,61.6
2019-02-07T07:10:28.473Z,61.6
2019-02-07T07:11:19.111Z,61.6
2019-02-07T07:12:08.971Z,61.5
2019-02-07T07:13:01.332Z,61.5
2019-02-07T07:13:49.006Z,61.5
2019-02-07T07:14:39.577Z,61.5
2019-02-07T07:15:29.183Z,61.5
2019-02-07T07:16:19.441Z,61.5
2019-02-07T07:17:09.227Z,61.5
2019-02-07T07:17:59.579Z,61.5
2019-02-07T07:18:49.125Z,61.5
2019-02-07T07:19:39.673Z,61.5
2019-02-07T07:20:29.349Z,61.5
2019-02-07T07:21:19.799Z,61.4
2019-02-07T07:22:10.937Z,61.4
2019-02-07T07:23:00.174Z,61.4
2019-02-07T07:23:49.996Z,61.4
2019-02-07T07:24:39.741Z,61.4
2019-02-07T07:25:30.463Z,61.4
2019-02-07T07:26:19.867Z,61.4
2019-02-07T07:27:09.936Z,61.4
2019-02-07T07:27:59.706Z,61.4
2019-02-07T07:28:50.640Z,61.4
2019-02-07T07:29:40.430Z,61.4
2019-02-07T07:30:30.423Z,61.4
2019-02-07T07:31:21.848Z,61.4
2019-02-07T07:32:10.665Z,61.4
2019-02-07T07:33:00.431Z,61.4
2019-02-07T07:33:49.931Z,61.3
2019-02-07T07:34:39.988Z,61.3
2019-02-07T07:35:30.600Z,61.3
2019-02-07T07:36:20.949Z,61.3
2019-02-07T07:37:10.668Z,61.3
2019-02-07T07:38:01.236Z,61.3
2019-02-07T07:38:51.010Z,61.3
2019-02-07T07:39:40.529Z,61.2
2019-02-07T07:40:32.177Z,61.2
2019-02-07T07:41:21.465Z,61.1
2019-02-07T07:42:11.536Z,61.1
2019-02-07T07:43:01.038Z,61.1
2019-02-07T07:43:51.595Z,61.1
2019-02-07T07:44:40.882Z,61.1
2019-02-07T07:45:31.768Z,61
2019-02-07T07:46:21.245Z,61.1
2019-02-07T07:47:11.350Z,61
2019-02-07T07:48:00.524Z,61
2019-02-07T07:48:51.927Z,61
2019-02-07T07:49:43.005Z,61
2019-02-07T07:50:32.172Z,61
2019-02-07T07:51:22.192Z,61
2019-02-07T07:52:11.422Z,61
2019-02-07T07:53:03.145Z,61
2019-02-07T07:53:52.355Z,61
2019-02-07T07:54:42.492Z,60.9
2019-02-07T07:55:31.464Z,60.9
2019-02-07T07:56:21.972Z,60.9
2019-02-07T07:57:12.064Z,60.9
2019-02-07T07:58:02.386Z,60.9
2019-02-07T07:58:54.209Z,60.9
2019-02-07T07:59:42.211Z,60.9
2019-02-07T08:00:32.564Z,60.9
2019-02-07T08:01:22.656Z,60.9
2019-02-07T08:02:12.727Z,60.9
2019-02-07T08:03:02.431Z,60.9
2019-02-07T08:03:52.754Z,60.9
2019-02-07T08:04:42.816Z,60.9
2019-02-07T08:05:32.641Z,60.9
2019-02-07T08:06:22.809Z,60.9
2019-02-07T08:07:12.421Z,60.8
2019-02-07T08:08:04.920Z,60.9
2019-02-07T08:08:52.536Z,60.8
2019-02-07T08:09:43.183Z,60.8
2019-02-07T08:10:33.326Z,60.8
2019-02-07T08:11:23.313Z,60.8
2019-02-07T08:12:12.481Z,60.8
2019-02-07T08:13:03.238Z,60.8
2019-02-07T08:13:53.181Z,60.8
2019-02-07T08:14:43.241Z,60.8
2019-02-07T08:15:33.325Z,60.8
2019-02-07T08:16:24.016Z,60.8
2019-02-07T08:17:15.799Z,60.8
2019-02-07T08:18:03.755Z,60.8
2019-02-07T08:18:52.705Z,60.8
2019-02-07T08:19:43.326Z,60.8
2019-02-07T08:20:33.424Z,60.8
2019-02-07T08:21:24.095Z,60.7
2019-02-07T08:22:13.494Z,60.7
2019-02-07T08:23:03.843Z,60.7
2019-02-07T08:23:53.871Z,60.7
2019-02-07T08:24:43.672Z,60.7
2019-02-07T08:25:34.564Z,60.7
2019-02-07T08:26:25.944Z,60.7
2019-02-07T08:27:13.823Z,60.7
2019-02-07T08:28:04.436Z,60.7
2019-02-07T08:28:53.701Z,60.7
2019-02-07T08:29:44.598Z,60.6
2019-02-07T08:30:41.508Z,60.6
2019-02-07T08:31:24.685Z,60.6
2019-02-07T08:32:14.477Z,60.6
2019-02-07T08:33:04.561Z,60.6
2019-02-07T08:33:54.862Z,60.6
2019-02-07T08:34:44.446Z,60.6
2019-02-07T08:35:36.990Z,60.6
2019-02-07T08:36:24.484Z,60.6
2019-02-07T08:37:15.373Z,60.6
2019-02-07T08:38:05.171Z,60.6
2019-02-07T08:38:54.766Z,60.6
2019-02-07T08:39:44.709Z,60.6
2019-02-07T08:40:35.689Z,60.6
2019-02-07T08:41:25.665Z,60.6
2019-02-07T08:42:14.900Z,60.6
2019-02-07T08:43:05.783Z,60.5
2019-02-07T08:43:55.530Z,60.5
2019-02-07T08:44:47.354Z,60.5
2019-02-07T08:45:35.928Z,60.5
2019-02-07T08:46:25.325Z,60.5
2019-02-07T08:47:15.311Z,60.5
2019-02-07T08:48:11.474Z,60.5
2019-02-07T08:48:56.157Z,60.4
2019-02-07T08:49:46.182Z,60.5
2019-02-07T08:50:36.139Z,60.4
2019-02-07T08:51:25.509Z,60.4
2019-02-07T08:52:16.197Z,60.4
2019-02-07T08:53:06.174Z,60.4
2019-02-07T08:53:57.707Z,60.4
2019-02-07T08:54:46.330Z,60.4
2019-02-07T08:55:39.548Z,60.4
2019-02-07T08:56:26.827Z,60.4
2019-02-07T08:57:17.051Z,60.4
2019-02-07T08:58:06.272Z,60.4
2019-02-07T08:58:56.599Z,60.4
2019-02-07T08:59:46.864Z,60.4
2019-02-07T09:00:36.734Z,60.4
2019-02-07T09:01:26.249Z,60.4
2019-02-07T09:02:16.554Z,60.4
2019-02-07T09:03:09.126Z,60.4
2019-02-07T09:03:56.964Z,60.4
2019-02-07T09:04:46.804Z,60.3
2019-02-07T09:05:36.527Z,60.3
2019-02-07T09:06:26.852Z,60.3
2019-02-07T09:07:17.238Z,60.3
2019-02-07T09:08:07.236Z,60.3
2019-02-07T09:08:57.421Z,60.3
2019-02-07T09:09:47.388Z,60.3
2019-02-07T09:10:36.876Z,60.3
2019-02-07T09:11:27.781Z,60.3
2019-02-07T09:12:19.534Z,60.3
2019-02-07T09:13:07.370Z,60.3
2019-02-07T09:13:58.769Z,60.3
2019-02-07T09:14:47.713Z,60.3
2019-02-07T09:15:37.726Z,60.3
2019-02-07T09:16:27.879Z,60.3
2019-02-07T09:17:19.294Z,60.3
2019-02-07T09:18:17.822Z,60.2
2019-02-07T09:18:57.727Z,60.2
2019-02-07T09:19:47.513Z,60.2
2019-02-07T09:20:38.228Z,60.2
2019-02-07T09:21:29.671Z,60.2
2019-02-07T09:22:18.510Z,60.2
2019-02-07T09:23:08.582Z,60.2
2019-02-07T09:23:57.797Z,60.1
2019-02-07T09:24:48.681Z,60.2
2019-02-07T09:25:39.015Z,60.1
2019-02-07T09:26:28.542Z,60.2
2019-02-07T09:27:18.162Z,60.1
2019-02-07T09:28:07.873Z,60.1
2019-02-07T09:28:58.712Z,60.1
2019-02-07T09:29:48.780Z,60.1
2019-02-07T09:30:40.119Z,60.1
2019-02-07T09:31:28.477Z,60.1
2019-02-07T09:32:18.701Z,60.1
2019-02-07T09:33:08.969Z,60.1
2019-02-07T09:34:00.000Z,60.1
2019-02-07T09:34:49.396Z,60.1
2019-02-07T09:35:39.192Z,60.1
2019-02-07T09:36:28.974Z,60.1
2019-02-07T09:37:19.569Z,60.1
2019-02-07T09:38:08.920Z,60
2019-02-07T09:38:59.443Z,60
2019-02-07T09:39:50.689Z,60
2019-02-07T09:40:39.054Z,60
2019-02-07T09:41:29.059Z,60
2019-02-07T09:42:19.386Z,60
2019-02-07T09:43:10.438Z,60
2019-02-07T09:43:59.789Z,60
2019-02-07T09:44:49.979Z,60
2019-02-07T09:45:39.906Z,60
2019-02-07T09:46:29.403Z,59.9
2019-02-07T09:47:19.751Z,59.9
2019-02-07T09:48:09.237Z,59.9
2019-02-07T09:49:01.969Z,59.9
2019-02-07T09:49:50.209Z,59.9
2019-02-07T09:50:39.955Z,59.9
2019-02-07T09:51:29.594Z,59.9
2019-02-07T09:52:19.886Z,59.9
2019-02-07T09:53:10.684Z,59.9
2019-02-07T09:54:00.885Z,59.9
2019-02-07T09:54:50.305Z,59.9
2019-02-07T09:55:40.678Z,59.9
2019-02-07T09:56:30.670Z,59.9
2019-02-07T09:57:20.745Z,59.9
2019-02-07T09:58:13.205Z,59.9
2019-02-07T09:59:03.795Z,59.9
2019-02-07T09:59:50.618Z,59.9
2019-02-07T10:00:40.945Z,59.9
2019-02-07T10:01:30.731Z,59.8
2019-02-07T10:02:20.818Z,59.8
2019-02-07T10:03:10.616Z,59.8
2019-02-07T10:04:01.691Z,59.8
2019-02-07T10:04:51.293Z,59.8
2019-02-07T10:07:20.117Z,59.8
2019-02-07T10:08:08.115Z,59.8
2019-02-07T10:08:58.774Z,59.8
2019-02-07T10:09:48.789Z,59.8
2019-02-07T10:10:39.095Z,59.8
2019-02-07T10:11:28.857Z,59.8
2019-02-07T10:12:18.676Z,59.8
2019-02-07T10:13:10.112Z,59.8
2019-02-07T10:13:59.097Z,59.8
2019-02-07T10:14:48.939Z,59.7
2019-02-07T10:15:39.601Z,59.8
2019-02-07T10:16:31.006Z,59.7
2019-02-07T10:17:18.498Z,59.8
2019-02-07T10:18:09.511Z,59.7
2019-02-07T10:18:59.444Z,59.7
2019-02-07T10:19:49.757Z,59.7
2019-02-07T10:20:41.772Z,59.7
2019-02-07T10:21:28.811Z,59.7
2019-02-07T10:22:21.384Z,59.6
2019-02-07T10:23:08.899Z,59.6
2019-02-07T10:23:59.776Z,59.6
2019-02-07T10:24:49.853Z,59.6
2019-02-07T10:25:40.596Z,59.6
2019-02-07T10:26:30.182Z,59.6
2019-02-07T10:27:20.031Z,59.6
2019-02-07T10:28:10.129Z,59.6
2019-02-07T10:28:59.958Z,59.6
2019-02-07T10:29:50.183Z,59.6
2019-02-07T10:30:40.033Z,59.6
2019-02-07T10:31:32.596Z,59.6
2019-02-07T10:32:20.369Z,59.6
2019-02-07T10:33:10.175Z,59.6
2019-02-07T10:34:00.740Z,59.6
2019-02-07T10:34:50.560Z,59.6
2019-02-07T10:35:40.329Z,59.6
2019-02-07T10:36:30.956Z,59.6
2019-02-07T10:37:21.038Z,59.6
2019-02-07T10:38:10.233Z,59.6
2019-02-07T10:39:00.838Z,59.5
2019-02-07T10:39:51.207Z,59.5
2019-02-07T10:40:42.662Z,59.5
2019-02-07T10:41:33.885Z,59.5
2019-02-07T10:42:21.095Z,59.5
2019-02-07T10:43:11.155Z,59.5
2019-02-07T10:44:00.977Z,59.5
2019-02-07T10:44:50.745Z,59.5
2019-02-07T10:45:41.622Z,59.5
2019-02-07T10:46:31.400Z,59.4
2019-02-07T10:47:20.945Z,59.4
2019-02-07T10:48:11.817Z,59.4
2019-02-07T10:49:01.272Z,59.4
2019-02-07T10:50:03.797Z,59.4
2019-02-07T10:50:41.740Z,59.4
2019-02-07T10:51:31.552Z,59.4
2019-02-07T10:52:20.687Z,59.4
2019-02-07T10:53:11.894Z,59.4
2019-02-07T10:54:01.937Z,59.4
2019-02-07T10:54:51.979Z,59.4
2019-02-07T10:55:41.284Z,59.4
2019-02-07T10:56:31.554Z,59.4
2019-02-07T10:57:21.621Z,59.4
2019-02-07T10:58:12.216Z,59.4
2019-02-07T10:59:04.247Z,59.4
2019-02-07T10:59:52.614Z,59.3
2019-02-07T11:00:42.107Z,59.3
2019-02-07T11:01:32.739Z,59.3
2019-02-07T11:02:22.036Z,59.3
2019-02-07T11:03:12.288Z,59.3
2019-02-07T11:04:02.922Z,59.3
2019-02-07T11:04:52.981Z,59.3
2019-02-07T11:05:42.801Z,59.3
2019-02-07T11:06:32.556Z,59.3
2019-02-07T11:07:23.151Z,59.3
2019-02-07T11:08:14.081Z,59.3
2019-02-07T11:09:03.061Z,59.3
2019-02-07T11:09:52.774Z,59.3
2019-02-07T11:10:43.417Z,59.3
2019-02-07T11:11:33.163Z,59.3
2019-02-07T11:12:22.934Z,59.3
2019-02-07T11:13:13.565Z,59.3
2019-02-07T11:14:03.344Z,59.3
2019-02-07T11:14:53.110Z,59.2
2019-02-07T11:15:43.571Z,59.2
2019-02-07T11:16:33.550Z,59.2
2019-02-07T11:17:25.435Z,59.2
2019-02-07T11:18:13.630Z,59.2
2019-02-07T11:19:03.690Z,59.2